Time;durP1;ratioP1;P1;durP2;ratioP2;P2;SDS_P1;SDS_P2;PMS_P1;PMS_P2;Temp;Humidity;BMP_temperature;BMP_pressure;BME280_temperature;BME280_humidity;BME280_pressure;Samples;Min_cycle;Max_cycle;Signal;HPM_P1;HPM_P2
2023/10/11 00:00:40;;;;;;;17.88;10.35;;;16.70;99.90;;;;;;5013717;28;20462;-81
2023/10/11 00:03:16;;;;;;;15.95;9.55;;;16.60;99.90;;;;;;5012903;28;20096;-80
2023/10/11 00:05:44;;;;;;;15.32;9.35;;;16.60;99.90;;;;;;5012270;28;20049;-81
2023/10/11 00:08:13;;;;;;;13.20;9.23;;;16.60;99.90;;;;;;5012036;28;20103;-80
2023/10/11 00:10:53;;;;;;;13.68;9.82;;;16.60;99.90;;;;;;5013197;28;20050;-82
2023/10/11 00:13:26;;;;;;;15.73;9.90;;;16.60;99.90;;;;;;5012507;28;20394;-80
2023/10/11 00:15:53;;;;;;;16.05;10.23;;;16.60;99.90;;;;;;5013831;28;20053;-81
2023/10/11 00:18:26;;;;;;;17.05;11.15;;;16.60;99.90;;;;;;5013131;28;20124;-81
2023/10/11 00:20:52;;;;;;;16.27;11.15;;;16.60;99.90;;;;;;5013157;28;20406;-81
2023/10/11 00:23:26;;;;;;;24.08;11.73;;;16.60;99.90;;;;;;5011157;28;20045;-81
2023/10/11 00:25:54;;;;;;;21.35;11.88;;;16.60;99.90;;;;;;5013128;28;20089;-81
2023/10/11 00:28:26;;;;;;;20.60;11.82;;;16.60;99.90;;;;;;5012904;28;20046;-80
2023/10/11 00:30:57;;;;;;;24.48;12.40;;;16.50;99.90;;;;;;5011947;28;20052;-81
2023/10/11 00:33:23;;;;;;;15.63;11.73;;;16.50;99.90;;;;;;5013574;28;20132;-81
2023/10/11 00:35:50;;;;;;;24.35;12.63;;;16.50;99.90;;;;;;5013467;28;20050;-80
2023/10/11 00:38:20;;;;;;;19.50;12.65;;;16.50;99.90;;;;;;5012638;28;20495;-81
2023/10/11 00:40:46;;;;;;;19.35;11.38;;;17.00;99.90;;;;;;5012828;28;20604;-81
2023/10/11 00:43:21;;;;;;;22.75;11.32;;;16.50;99.90;;;;;;5012916;28;20132;-81
2023/10/11 00:45:48;;;;;;;18.00;11.32;;;16.50;99.90;;;;;;5013011;28;20046;-81
2023/10/11 00:48:19;;;;;;;25.92;12.55;;;16.50;99.90;;;;;;5012923;28;20046;-81
2023/10/11 00:50:45;;;;;;;23.10;14.00;;;16.40;99.90;;;;;;5013175;28;20089;-81
2023/10/11 00:53:13;;;;;;;18.73;12.60;;;16.50;99.90;;;;;;5012675;28;20057;-81
2023/10/11 00:55:41;;;;;;;22.70;12.43;;;16.50;99.90;;;;;;5012668;28;20042;-81
2023/10/11 00:58:06;;;;;;;22.77;13.27;;;16.50;99.90;;;;;;5013179;28;20053;-81
2023/10/11 01:00:36;;;;;;;21.35;12.38;;;16.40;99.90;;;;;;5011897;28;20458;-81
2023/10/11 01:03:03;;;;;;;18.45;12.15;;;16.50;99.90;;;;;;5011746;28;20378;-81
2023/10/11 01:05:32;;;;;;;25.85;12.40;;;16.50;99.90;;;;;;5012460;28;20053;-81
2023/10/11 01:07:58;;;;;;;16.77;12.05;;;16.50;99.90;;;;;;5011953;28;20129;-81
2023/10/11 01:10:24;;;;;;;21.95;13.18;;;16.50;99.90;;;;;;5011442;28;20129;-81
2023/10/11 01:12:49;;;;;;;33.13;13.38;;;16.40;99.90;;;;;;5012634;28;20074;-81
2023/10/11 01:15:19;;;;;;;20.85;11.82;;;16.40;99.90;;;;;;5012812;28;20439;-81
2023/10/11 01:17:45;;;;;;;20.10;12.55;;;16.40;99.90;;;;;;5011257;28;20046;-81
2023/10/11 01:20:14;;;;;;;21.40;13.30;;;16.40;99.90;;;;;;5011389;28;20046;-81
2023/10/11 01:22:46;;;;;;;22.58;13.80;;;16.40;99.90;;;;;;5012572;28;20042;-81
2023/10/11 01:25:18;;;;;;;26.88;13.50;;;16.40;99.90;;;;;;5012772;28;20042;-81
2023/10/11 01:27:48;;;;;;;21.25;13.68;;;16.40;99.90;;;;;;5012647;28;20436;-81
2023/10/11 01:30:15;;;;;;;22.92;13.98;;;16.40;99.90;;;;;;5011111;28;20518;-81
2023/10/11 01:32:41;;;;;;;26.83;14.15;;;16.40;99.90;;;;;;5011176;28;20507;-81
2023/10/11 01:35:12;;;;;;;21.77;15.15;;;16.30;99.90;;;;;;5015602;28;20041;-81
2023/10/11 01:37:42;;;;;;;25.27;14.30;;;16.40;99.90;;;;;;5015322;28;20053;-81
2023/10/11 01:40:09;;;;;;;21.98;15.52;;;16.40;99.90;;;;;;5016305;28;20133;-81
2023/10/11 01:42:36;;;;;;;28.73;14.73;;;16.30;99.90;;;;;;5015966;28;20045;-81
2023/10/11 01:45:07;;;;;;;24.27;13.90;;;16.30;99.90;;;;;;5014878;28;20478;-81
2023/10/11 01:47:34;;;;;;;21.90;14.00;;;16.30;99.90;;;;;;5016352;28;20049;-81
2023/10/11 01:49:59;;;;;;;22.83;14.38;;;16.30;99.90;;;;;;5016317;28;20050;-81
2023/10/11 01:52:26;;;;;;;27.70;15.07;;;16.20;99.90;;;;;;5016339;28;20496;-81
2023/10/11 01:54:55;;;;;;;25.85;14.27;;;16.30;99.90;;;;;;5015316;28;20124;-81
2023/10/11 01:57:25;;;;;;;26.83;14.98;;;16.30;99.90;;;;;;5015732;28;20057;-81
2023/10/11 01:59:52;;;;;;;24.88;15.43;;;16.30;99.90;;;;;;5015775;28;20081;-80
2023/10/11 02:02:18;;;;;;;22.38;15.98;;;16.30;99.90;;;;;;5015558;28;20463;-81
2023/10/11 02:04:44;;;;;;;25.10;17.27;;;16.30;99.90;;;;;;5015513;28;20045;-81
2023/10/11 02:07:10;;;;;;;27.25;15.18;;;16.30;99.90;;;;;;5015495;28;20049;-81
2023/10/11 02:09:36;;;;;;;24.95;16.05;;;16.30;99.90;;;;;;5015734;28;20054;-81
2023/10/11 02:12:06;;;;;;;29.58;14.98;;;16.30;99.90;;;;;;5014906;28;20052;-81
2023/10/11 02:14:32;;;;;;;26.08;15.20;;;16.20;99.90;;;;;;5015043;28;20557;-81
2023/10/11 02:16:59;;;;;;;26.15;15.00;;;16.20;99.90;;;;;;5015731;28;20073;-81
2023/10/11 02:19:25;;;;;;;21.23;14.30;;;16.20;99.90;;;;;;5015262;28;20474;-81
2023/10/11 02:21:53;;;;;;;30.05;14.00;;;16.30;99.90;;;;;;5015470;28;20129;-81
2023/10/11 02:24:19;;;;;;;26.02;14.80;;;16.20;99.90;;;;;;5015973;28;20076;-81
2023/10/11 02:26:50;;;;;;;27.05;14.95;;;16.20;99.90;;;;;;5015592;28;20475;-81
2023/10/11 02:29:22;;;;;;;32.95;15.40;;;16.30;99.90;;;;;;5015186;28;20049;-81
2023/10/11 02:31:54;;;;;;;23.60;14.75;;;16.20;99.90;;;;;;5015058;28;20050;-81
2023/10/11 02:34:21;;;;;;;22.90;14.45;;;16.20;99.90;;;;;;5014758;28;20485;-81
2023/10/11 02:36:57;;;;;;;32.70;15.85;;;16.30;99.90;;;;;;5015171;28;20057;-81
2023/10/11 02:39:31;;;;;;;32.05;16.40;;;16.20;99.90;;;;;;5014578;28;20459;-81
2023/10/11 02:41:58;;;;;;;24.13;15.18;;;16.30;99.90;;;;;;5014918;28;20105;-81
2023/10/11 02:44:27;;;;;;;27.92;16.13;;;16.30;99.90;;;;;;5014716;28;20042;-81
2023/10/11 02:46:53;;;;;;;25.25;14.13;;;16.30;99.90;;;;;;5014107;28;20108;-81
2023/10/11 02:49:19;;;;;;;32.88;14.75;;;16.20;99.90;;;;;;5014695;28;20474;-81
2023/10/11 02:51:53;;;;;;;25.23;15.02;;;16.30;99.90;;;;;;5013891;28;20054;-80
2023/10/11 02:54:38;;;;;;;27.55;15.77;;;16.20;99.90;;;;;;5015394;28;20068;-81
2023/10/11 02:59:59;;;;;;;24.63;15.07;;;16.20;99.90;;;;;;5009452;28;20053;-81
2023/10/11 03:02:29;;;;;;;26.48;14.10;;;16.20;99.90;;;;;;5013267;28;20099;-81
2023/10/11 03:04:54;;;;;;;27.88;15.40;;;16.20;99.90;;;;;;5014246;28;20499;-81
2023/10/11 03:07:23;;;;;;;31.98;15.55;;;16.20;99.90;;;;;;5013760;28;20050;-81
2023/10/11 03:09:50;;;;;;;28.40;15.05;;;16.20;99.90;;;;;;5014334;28;20046;-81
2023/10/11 03:12:19;;;;;;;24.30;15.63;;;16.10;99.90;;;;;;5013631;28;20435;-81
2023/10/11 03:14:46;;;;;;;25.75;16.30;;;16.10;99.90;;;;;;5013368;28;20049;-81
2023/10/11 03:17:16;;;;;;;28.85;15.55;;;16.10;99.90;;;;;;5014346;28;20050;-81
2023/10/11 03:19:49;;;;;;;24.98;16.40;;;16.10;99.90;;;;;;5014460;28;20054;-81
2023/10/11 03:22:21;;;;;;;;;;;16.10;99.90;;;;;;5014923;28;20085;-81
2023/10/11 03:24:59;;;;;;;26.73;15.95;;;16.10;99.90;;;;;;5014495;28;19975;-81
2023/10/11 03:27:27;;;;;;;27.00;15.82;;;16.10;99.90;;;;;;5014365;28;20046;-81
2023/10/11 03:29:53;;;;;;;25.52;15.52;;;16.00;99.90;;;;;;5013948;28;20482;-81
2023/10/11 03:32:19;;;;;;;28.38;14.95;;;16.10;99.90;;;;;;5013921;28;20045;-80
2023/10/11 03:34:46;;;;;;;25.88;14.88;;;16.10;99.90;;;;;;5014152;28;20057;-80
2023/10/11 03:37:18;;;;;;;33.88;14.90;;;16.10;99.90;;;;;;5013945;28;20471;-80
2023/10/11 03:39:54;;;;;;;31.23;15.50;;;16.10;99.90;;;;;;5013778;28;20050;-80
2023/10/11 03:42:20;;;;;;;30.85;15.77;;;16.10;99.90;;;;;;5014376;28;20054;-80
2023/10/11 03:44:46;;;;;;;27.02;14.77;;;16.10;99.90;;;;;;5013611;28;20053;-80
2023/10/11 03:47:24;;;;;;;25.58;13.52;;;16.10;99.90;;;;;;5014207;28;20049;-80
2023/10/11 03:49:53;;;;;;;18.63;13.38;;;16.20;99.90;;;;;;5012941;28;20054;-80
2023/10/11 03:52:22;;;;;;;27.13;13.20;;;16.20;99.90;;;;;;5013322;28;20616;-80
2023/10/11 03:54:54;;;;;;;25.30;14.05;;;16.20;99.90;;;;;;4996309;28;20085;-80
2023/10/11 03:57:20;;;;;;;28.45;14.45;;;16.20;99.90;;;;;;4996336;28;20053;-80
2023/10/11 03:59:51;;;;;;;23.67;14.18;;;16.20;99.90;;;;;;5013701;28;20050;-80
2023/10/11 04:02:17;;;;;;;20.10;13.73;;;16.20;99.90;;;;;;5013474;28;20045;-80
2023/10/11 04:04:48;;;;;;;23.75;13.18;;;16.30;99.90;;;;;;5013196;28;20117;-81
2023/10/11 04:07:21;;;;;;;27.55;14.23;;;16.30;99.90;;;;;;5013827;28;20147;-80
2023/10/11 04:09:47;;;;;;;22.85;14.82;;;16.30;99.90;;;;;;5013590;28;20052;-80
2023/10/11 04:12:14;;;;;;;22.05;13.50;;;16.40;99.90;;;;;;5013269;28;20545;-81
2023/10/11 04:19:46;;;;;;;23.95;13.60;;;16.40;99.90;;;;;;5012855;28;20104;-80
2023/10/11 04:22:12;;;;;;;27.90;12.50;;;16.30;99.90;;;;;;5012843;28;20053;-80
2023/10/11 04:24:39;;;;;;;22.52;12.88;;;16.30;99.90;;;;;;5013446;28;20042;-80
2023/10/11 04:29:51;;;;;;;20.85;12.63;;;16.30;99.90;;;;;;4992106;28;20157;-80
2023/10/11 04:35:25;;;;;;;24.77;12.85;;;16.30;99.90;;;;;;5012966;28;20104;-80
2023/10/11 04:38:01;;;;;;;19.98;13.45;;;16.30;99.90;;;;;;5012418;28;20597;-80
2023/10/11 04:43:05;;;;;;;23.13;13.13;;;16.20;99.90;;;;;;5012623;28;20559;-80
2023/10/11 04:45:44;;;;;;;27.03;13.80;;;16.20;99.90;;;;;;5012622;28;20116;-80
2023/10/11 04:48:15;;;;;;;21.52;13.63;;;15.80;99.90;;;;;;5012549;28;20291;-81
2023/10/11 04:50:45;;;;;;;25.15;12.85;;;16.20;99.90;;;;;;5012527;28;20049;-81
2023/10/11 04:53:17;;;;;;;18.08;12.68;;;16.10;99.90;;;;;;5012597;28;20146;-80
2023/10/11 04:55:59;;;;;;;24.58;12.52;;;16.10;99.90;;;;;;5012716;28;20076;-79
2023/10/11 04:58:42;;;;;;;20.67;12.93;;;16.10;99.90;;;;;;5012605;28;20041;-80
2023/10/11 05:01:12;;;;;;;;;;;16.10;99.90;;;;;;5013243;28;20144;-81
2023/10/11 05:03:42;;;;;;;17.70;12.38;;;16.10;99.90;;;;;;5011142;28;19921;-80
2023/10/11 05:06:15;;;;;;;26.75;13.68;;;16.10;99.90;;;;;;5012546;28;20061;-80
2023/10/11 05:08:51;;;;;;;26.98;15.07;;;16.00;99.90;;;;;;5013314;28;20512;-80
2023/10/11 05:11:36;;;;;;;17.73;12.32;;;16.00;99.90;;;;;;5016321;28;20104;-81
2023/10/11 05:16:50;;;;;;;23.48;13.65;;;16.00;99.90;;;;;;5016338;28;20056;-80
2023/10/11 05:19:20;;;;;;;22.00;12.68;;;15.90;99.90;;;;;;5016286;28;20046;-80
2023/10/11 05:21:52;;;;;;;24.40;12.95;;;16.00;99.90;;;;;;5016155;28;20053;-81
2023/10/11 05:24:54;;;;;;;26.27;14.15;;;16.00;99.90;;;;;;5015543;28;20053;-80
2023/10/11 05:51:29;;;;;;;22.83;13.95;;;15.90;99.90;;;;;;5014855;28;20057;-80
2023/10/11 05:54:00;;;;;;;21.67;13.45;;;15.90;99.90;;;;;;5014946;28;20041;-80
2023/10/11 05:56:33;;;;;;;34.08;15.23;;;15.90;99.90;;;;;;5015623;28;20045;-80
2023/10/11 05:59:03;;;;;;;28.50;14.15;;;16.00;99.90;;;;;;5015651;28;20049;-80
2023/10/11 06:01:30;;;;;;;22.05;13.90;;;15.90;99.90;;;;;;5014562;28;20475;-80
2023/10/11 06:03:56;;;;;;;26.60;13.40;;;15.90;99.90;;;;;;5015709;28;20049;-80
2023/10/11 06:06:32;;;;;;;24.15;14.55;;;16.00;99.90;;;;;;5014697;28;20453;-80
2023/10/11 06:08:58;;;;;;;29.55;16.17;;;15.90;99.90;;;;;;5015704;28;20042;-80
2023/10/11 06:11:29;;;;;;;27.25;15.30;;;16.00;99.90;;;;;;5015423;28;20057;-80
2023/10/11 06:14:04;;;;;;;25.63;14.10;;;16.00;99.90;;;;;;5015354;28;20092;-80
2023/10/11 06:16:37;;;;;;;28.80;15.23;;;16.10;99.90;;;;;;5014947;28;20053;-80
2023/10/11 06:19:16;;;;;;;27.83;14.63;;;16.00;99.90;;;;;;5015297;28;20057;-80
2023/10/11 06:21:59;;;;;;;26.10;14.00;;;16.00;99.90;;;;;;5014669;28;20057;-80
2023/10/11 06:24:35;;;;;;;26.05;14.55;;;16.10;99.90;;;;;;5015418;28;20564;-79
2023/10/11 06:29:45;;;;;;;24.85;14.93;;;16.20;99.90;;;;;;5015602;28;20089;-79
2023/10/11 06:32:11;;;;;;;21.70;13.77;;;16.20;99.90;;;;;;5015189;28;20096;-79
2023/10/11 06:34:40;;;;;;;25.67;14.95;;;16.30;99.90;;;;;;5015089;28;20049;-78
2023/10/11 06:37:08;;;;;;;27.52;14.80;;;16.40;99.90;;;;;;5014967;28;20049;-79
2023/10/11 06:44:48;;;;;;;29.17;14.75;;;16.50;99.90;;;;;;5014804;28;20092;-78
2023/10/11 06:47:15;;;;;;;29.15;15.23;;;16.50;99.90;;;;;;5014191;28;20421;-79
2023/10/11 06:49:44;;;;;;;24.38;14.48;;;16.60;99.90;;;;;;5014278;28;20503;-80
2023/10/11 06:52:11;;;;;;;31.30;14.43;;;16.60;99.90;;;;;;5013256;28;20085;-78
2023/10/11 06:54:45;;;;;;;27.70;14.77;;;16.60;99.90;;;;;;5014535;28;20437;-80
2023/10/11 06:57:19;;;;;;;28.88;16.83;;;16.70;99.90;;;;;;5015095;28;20073;-81
2023/10/11 06:59:56;;;;;;;23.65;14.27;;;16.60;99.90;;;;;;5014462;28;20054;-79
2023/10/11 07:02:31;;;;;;;23.73;14.95;;;16.70;99.90;;;;;;5014305;28;20049;-78
2023/10/11 07:05:08;;;;;;;26.45;14.10;;;16.60;99.90;;;;;;5014398;28;20160;-77
2023/10/11 07:07:34;;;;;;;25.00;14.82;;;16.70;99.90;;;;;;5013047;28;20060;-77
2023/10/11 07:10:28;;;;;;;28.13;15.73;;;16.70;99.90;;;;;;5014136;28;20085;-78
2023/10/11 07:13:03;;;;;;;29.50;17.15;;;16.70;99.90;;;;;;5012853;28;20046;-76
2023/10/11 07:15:46;;;;;;;21.83;16.08;;;16.80;99.90;;;;;;5013108;28;20074;-76
2023/10/11 07:18:27;;;;;;;24.45;15.13;;;16.80;99.90;;;;;;5013877;28;20119;-77
2023/10/11 07:23:35;;;;;;;28.40;15.38;;;16.90;99.90;;;;;;5014312;28;20216;-79
2023/10/11 07:27:08;;;;;;;27.88;14.20;;;16.80;99.90;;;;;;5013977;28;20121;-77
2023/10/11 07:29:00;;;;;;;24.38;13.95;;;16.90;99.90;;;;;;5008877;28;20065;-77
2023/10/11 07:31:35;;;;;;;28.38;14.85;;;16.90;99.90;;;;;;5014350;28;20068;-78
2023/10/11 07:34:16;;;;;;;23.92;13.82;;;16.90;99.90;;;;;;5014269;28;20448;-77
2023/10/11 07:36:42;;;;;;;28.48;14.32;;;16.90;99.90;;;;;;5013997;28;20099;-76
2023/10/11 07:39:19;;;;;;;32.92;15.10;;;16.90;99.90;;;;;;5013850;28;20050;-78
2023/10/11 07:41:48;;;;;;;27.58;14.63;;;17.00;99.90;;;;;;5013680;28;20457;-79
2023/10/11 07:44:14;;;;;;;32.35;14.57;;;17.00;99.90;;;;;;5013553;28;20045;-78
2023/10/11 07:46:43;;;;;;;34.55;16.73;;;17.00;99.90;;;;;;5014301;28;20356;-79
2023/10/11 07:49:15;;;;;;;27.60;15.25;;;17.00;99.90;;;;;;5013647;28;20081;-79
2023/10/11 07:51:42;;;;;;;22.23;14.43;;;17.10;99.90;;;;;;5014000;28;20061;-78
2023/10/11 07:54:19;;;;;;;24.48;14.35;;;17.10;99.90;;;;;;5013425;28;20049;-79
2023/10/11 07:56:46;;;;;;;25.83;15.43;;;17.10;99.90;;;;;;5013843;28;20065;-79
2023/10/11 07:59:12;;;;;;;30.50;16.92;;;17.10;99.90;;;;;;5013332;28;20103;-79
2023/10/11 08:01:45;;;;;;;34.00;17.30;;;17.20;99.90;;;;;;5012870;28;20136;-80
2023/10/11 08:04:21;;;;;;;29.20;16.42;;;17.20;99.90;;;;;;5013306;28;20533;-79
2023/10/11 08:06:51;;;;;;;30.63;17.23;;;17.20;99.90;;;;;;5013552;28;20084;-79
2023/10/11 08:09:20;;;;;;;33.65;19.08;;;17.20;99.90;;;;;;5013816;28;20104;-81
2023/10/11 08:11:52;;;;;;;28.95;16.83;;;17.20;99.90;;;;;;5013287;28;20061;-79
2023/10/11 08:14:21;;;;;;;31.90;18.35;;;17.30;99.90;;;;;;5013687;28;20120;-79
2023/10/11 08:16:50;;;;;;;29.63;16.73;;;17.20;99.90;;;;;;5013826;28;20119;-79
2023/10/11 08:19:16;;;;;;;28.33;18.40;;;17.30;99.90;;;;;;5013047;28;20050;-79
2023/10/11 08:21:54;;;;;;;38.97;19.80;;;17.20;99.90;;;;;;5012292;28;20386;-79
2023/10/11 08:24:24;;;;;;;30.20;18.77;;;17.30;99.90;;;;;;5013471;28;20042;-79
2023/10/11 08:26:52;;;;;;;34.63;20.58;;;17.20;99.90;;;;;;5013048;28;20046;-79
2023/10/11 08:29:30;;;;;;;36.15;20.15;;;17.20;99.90;;;;;;5013045;28;20056;-79
2023/10/11 08:31:59;;;;;;;36.25;19.77;;;17.20;99.90;;;;;;5012983;28;20056;-79
2023/10/11 08:34:26;;;;;;;40.10;20.48;;;17.20;99.90;;;;;;5012816;28;20042;-79
2023/10/11 08:36:54;;;;;;;31.17;19.08;;;17.20;99.90;;;;;;5012837;28;20076;-79
2023/10/11 08:39:35;;;;;;;34.05;20.27;;;17.30;99.90;;;;;;5012829;28;20042;-79
2023/10/11 08:42:06;;;;;;;38.70;19.40;;;17.30;99.90;;;;;;5012897;28;20052;-79
2023/10/11 08:44:32;;;;;;;31.17;19.42;;;17.30;99.90;;;;;;5012168;28;20049;-78
2023/10/11 08:47:04;;;;;;;29.52;18.48;;;17.30;99.90;;;;;;5013235;28;20104;-79
2023/10/11 08:49:30;;;;;;;31.15;17.23;;;17.40;99.90;;;;;;5012417;28;20401;-79
2023/10/11 08:52:00;;;;;;;37.88;18.95;;;17.30;99.90;;;;;;5012695;28;20085;-80
2023/10/11 08:54:28;;;;;;;34.58;19.23;;;17.30;99.90;;;;;;5012869;28;20489;-80
2023/10/11 08:56:54;;;;;;;36.05;18.95;;;17.40;99.90;;;;;;5012676;28;20050;-80
2023/10/11 08:59:30;;;;;;;30.02;19.35;;;17.40;99.90;;;;;;5011876;28;20053;-79
2023/10/11 09:02:07;;;;;;;24.08;17.50;;;17.40;99.90;;;;;;5012839;28;20484;-81
2023/10/11 09:04:55;;;;;;;31.92;19.00;;;17.40;99.90;;;;;;5012776;28;20125;-80
2023/10/11 09:07:45;;;;;;;31.30;18.58;;;17.40;99.90;;;;;;5012222;28;20379;-80
2023/10/11 09:10:32;;;;;;;30.90;17.65;;;17.40;99.90;;;;;;5012821;28;20088;-80
2023/10/11 09:13:00;;;;;;;25.77;16.65;;;17.40;99.90;;;;;;5012525;28;20088;-80
2023/10/11 09:15:42;;;;;;;25.75;15.15;;;17.50;99.90;;;;;;5012370;28;20041;-81
2023/10/11 09:18:16;;;;;;;30.30;15.23;;;17.50;99.90;;;;;;5011624;28;20057;-80
2023/10/11 09:20:48;;;;;;;23.15;14.73;;;17.50;99.90;;;;;;5012323;28;20065;-80
2023/10/11 09:23:20;;;;;;;28.02;16.27;;;17.50;99.90;;;;;;5012048;28;20555;-68
2023/10/11 09:25:59;;;;;;;21.42;14.43;;;17.50;99.90;;;;;;5012696;28;20053;-82
2023/10/11 09:28:28;;;;;;;23.55;14.10;;;17.60;99.90;;;;;;5012398;28;20049;-83
2023/10/11 09:31:15;;;;;;;25.98;13.20;;;17.50;99.90;;;;;;5011365;28;20054;-83
2023/10/11 09:33:53;;;;;;;21.38;14.10;;;17.60;99.90;;;;;;5012518;28;20064;-85
2023/10/11 09:36:20;;;;;;;26.35;13.68;;;17.50;99.90;;;;;;5012313;28;20112;-80
2023/10/11 09:38:55;;;;;;;26.27;13.35;;;17.50;99.90;;;;;;5012396;28;20042;-84
2023/10/11 09:41:25;;;;;;;19.83;11.68;;;17.50;99.90;;;;;;5011085;28;20096;-82
2023/10/11 09:43:59;;;;;;;18.38;10.52;;;17.50;99.90;;;;;;5012163;28;20109;-84
2023/10/11 09:46:32;;;;;;;14.85;10.60;;;17.60;99.90;;;;;;5012589;28;20092;-82
2023/10/11 09:49:00;;;;;;;15.73;9.77;;;17.50;99.90;;;;;;5012891;28;20068;-84
2023/10/11 09:51:26;;;;;;;15.38;9.98;;;17.60;99.90;;;;;;5012526;28;20046;-83
2023/10/11 09:53:53;;;;;;;13.05;8.43;;;17.60;99.90;;;;;;5012152;28;20042;-82
2023/10/11 09:56:25;;;;;;;16.05;8.30;;;17.80;99.90;;;;;;5015966;28;20049;-86
2023/10/11 09:59:30;;;;;;;11.95;8.18;;;17.90;99.90;;;;;;5015030;28;20057;-85
2023/10/11 10:02:07;;;;;;;12.80;7.68;;;18.00;99.90;;;;;;5015513;28;20062;-85
2023/10/11 10:05:05;;;;;;;13.88;8.20;;;18.10;99.90;;;;;;5014607;28;20046;-82
2023/10/11 10:07:45;;;;;;;11.43;6.95;;;18.10;99.90;;;;;;4982523;28;20054;-82
2023/10/11 10:10:15;;;;;;;13.15;7.68;;;18.20;99.90;;;;;;5014538;28;20125;-84
2023/10/11 10:12:43;;;;;;;14.00;8.65;;;18.30;99.90;;;;;;5015543;28;20062;-83
2023/10/11 10:15:26;;;;;;;13.20;8.15;;;18.40;99.90;;;;;;5014499;28;20102;-83
2023/10/11 10:18:01;;;;;;;10.25;6.50;;;18.40;99.90;;;;;;5015443;28;20053;-82
2023/10/11 10:20:42;;;;;;;9.15;6.45;;;18.50;99.90;;;;;;5014521;28;20052;-84
2023/10/11 10:23:14;;;;;;;13.05;6.80;;;18.70;99.90;;;;;;5015447;28;20505;-84
2023/10/11 10:25:40;;;;;;;11.82;6.88;;;18.80;99.90;;;;;;5015063;28;20045;-85
2023/10/11 10:28:32;;;;;;;7.68;6.25;;;19.00;99.90;;;;;;5015669;28;20053;-83
2023/10/11 10:31:11;;;;;;;11.18;6.18;;;19.10;99.90;;;;;;5015136;28;20103;-83
2023/10/11 10:33:52;;;;;;;14.57;6.95;;;19.20;99.90;;;;;;5015081;28;20050;-82
2023/10/11 10:36:18;;;;;;;13.90;7.03;;;19.20;99.90;;;;;;5015124;28;20057;-79
2023/10/11 10:41:33;;;;;;;9.00;6.38;;;19.20;99.90;;;;;;5014861;28;20519;-82
2023/10/11 10:44:17;;;;;;;11.27;7.28;;;19.00;99.90;;;;;;5014397;28;20359;-80
2023/10/11 10:46:50;;;;;;;8.27;6.05;;;19.10;99.90;;;;;;5015472;28;20089;-83
2023/10/11 10:49:19;;;;;;;9.77;6.22;;;19.10;99.90;;;;;;5015135;28;20041;-82
2023/10/11 10:51:47;;;;;;;10.60;5.88;;;19.30;99.90;;;;;;5014631;28;20088;-82
2023/10/11 10:54:13;;;;;;;8.88;6.07;;;19.50;99.90;;;;;;5014948;28;20081;-82
2023/10/11 10:56:43;;;;;;;10.15;6.25;;;19.80;99.90;;;;;;5013481;28;20053;-82
2023/10/11 10:59:12;;;;;;;8.82;5.70;;;19.90;99.90;;;;;;5015137;28;20517;-83
2023/10/11 11:01:44;;;;;;;10.35;6.32;;;20.10;99.90;;;;;;5013442;28;20060;-83
2023/10/11 11:04:11;;;;;;;9.00;5.82;;;20.10;99.90;;;;;;5013635;28;20177;-82
2023/10/11 11:06:58;;;;;;;8.80;5.53;;;20.10;99.90;;;;;;5014098;28;20508;-83
2023/10/11 11:09:27;;;;;;;6.97;4.75;;;20.20;99.90;;;;;;5015037;28;20045;-84
2023/10/11 11:12:14;;;;;;;6.30;5.35;;;20.30;99.90;;;;;;5014496;28;20085;-82
2023/10/11 11:14:54;;;;;;;9.95;5.13;;;20.30;99.90;;;;;;5014610;28;20045;-80
2023/10/11 11:17:23;;;;;;;7.45;4.57;;;20.20;99.90;;;;;;5014296;28;20045;-82
2023/10/11 11:20:15;;;;;;;8.13;4.50;;;20.20;99.90;;;;;;5013175;28;20089;-83
2023/10/11 11:22:47;;;;;;;10.43;4.80;;;20.20;99.90;;;;;;5014294;28;20111;-83
2023/10/11 11:25:26;;;;;;;8.35;4.55;;;20.20;99.90;;;;;;5014565;28;20041;-79
2023/10/11 11:28:15;;;;;;;6.40;4.20;;;20.30;99.90;;;;;;5014357;28;20529;-82
2023/10/11 11:31:13;;;;;;;8.05;4.70;;;20.50;99.90;;;;;;5014441;28;20116;-84
2023/10/11 11:36:41;;;;;;;9.30;5.20;;;20.50;99.90;;;;;;4973179;28;20520;-82
2023/10/11 11:39:27;;;;;;;9.90;4.45;;;20.40;99.90;;;;;;5005926;28;20064;-83
2023/10/11 11:41:57;;;;;;;9.43;4.70;;;20.40;99.90;;;;;;5013633;28;20442;-82
2023/10/11 11:44:24;;;;;;;6.50;4.10;;;20.50;99.90;;;;;;5013811;28;20110;-84
2023/10/11 11:46:54;;;;;;;7.00;3.70;;;20.30;99.90;;;;;;5013838;28;20061;-84
2023/10/11 11:49:24;;;;;;;5.88;4.07;;;20.30;99.90;;;;;;5013382;28;20463;-82
2023/10/11 11:51:55;;;;;;;5.53;3.95;;;20.20;99.90;;;;;;5013642;28;20054;-84
2023/10/11 11:54:23;;;;;;;8.15;3.97;;;20.30;99.90;;;;;;5013600;28;20050;-82
2023/10/11 11:56:54;;;;;;;7.13;3.63;;;20.40;99.90;;;;;;5013960;28;20046;-86
2023/10/11 11:59:20;;;;;;;6.15;3.90;;;20.50;99.90;;;;;;5012576;28;20046;-82
2023/10/11 12:01:56;;;;;;;6.45;3.85;;;20.60;99.90;;;;;;5013648;28;20519;-82
2023/10/11 12:04:29;;;;;;;7.40;3.92;;;20.80;99.90;;;;;;5013491;28;20057;-81
2023/10/11 12:07:04;;;;;;;5.22;3.40;;;20.80;99.90;;;;;;5014114;28;20046;-84
2023/10/11 12:09:32;;;;;;;5.93;4.35;;;20.90;99.90;;;;;;5013346;28;20080;-80
2023/10/11 12:12:05;;;;;;;6.03;3.40;;;20.90;99.90;;;;;;5013781;28;20046;-83
2023/10/11 12:14:32;;;;;;;7.13;3.97;;;20.90;99.90;;;;;;5014072;28;20113;-80
2023/10/11 12:16:58;;;;;;;7.35;4.05;;;20.80;99.90;;;;;;5013899;28;20080;-80
2023/10/11 12:19:24;;;;;;;7.68;4.25;;;20.80;99.90;;;;;;5013325;28;20120;-83
2023/10/11 12:21:56;;;;;;;4.07;3.45;;;20.70;99.90;;;;;;5013989;28;20056;-80
2023/10/11 12:24:25;;;;;;;7.53;4.30;;;20.60;99.90;;;;;;5014562;28;20053;-84
2023/10/11 12:26:53;;;;;;;6.63;4.13;;;20.60;99.90;;;;;;5026707;28;20076;-79
2023/10/11 12:29:21;;;;;;;6.38;3.63;;;20.70;99.90;;;;;;5035745;28;20500;-84
2023/10/11 12:31:47;;;;;;;7.38;3.88;;;20.70;99.90;;;;;;5013838;28;20053;-83
2023/10/11 12:34:13;;;;;;;7.25;3.65;;;20.80;99.90;;;;;;5012859;28;20045;-83
2023/10/11 12:36:41;;;;;;;9.02;3.60;;;20.80;99.90;;;;;;5013394;28;20177;-85
2023/10/11 12:39:08;;;;;;;5.82;3.22;;;20.80;99.90;;;;;;5013138;28;20046;-83
2023/10/11 12:41:39;;;;;;;6.72;3.90;;;20.80;99.90;;;;;;5013002;28;20081;-83
2023/10/11 12:44:07;;;;;;;4.82;3.40;;;20.80;99.90;;;;;;5013235;28;20045;-84
2023/10/11 12:46:34;;;;;;;4.68;3.13;;;20.80;99.90;;;;;;5013025;28;20128;-82
2023/10/11 12:49:00;;;;;;;3.97;3.10;;;20.70;99.90;;;;;;5013049;28;20433;-83
2023/10/11 12:51:27;;;;;;;6.05;2.95;;;20.80;99.90;;;;;;5012480;28;20460;-81
2023/10/11 12:53:54;;;;;;;4.70;3.50;;;20.90;99.90;;;;;;5012718;28;20045;-83
2023/10/11 12:56:25;;;;;;;5.95;3.20;;;21.00;99.90;;;;;;5012602;28;20486;-81
2023/10/11 12:58:52;;;;;;;5.43;3.55;;;21.00;99.90;;;;;;5012879;28;20061;-81
2023/10/11 13:01:26;;;;;;;5.43;3.15;;;21.00;99.90;;;;;;5012772;28;20090;-83
2023/10/11 13:04:06;;;;;;;5.32;3.67;;;21.00;99.90;;;;;;5013170;28;20057;-81
2023/10/11 13:06:37;;;;;;;7.20;3.30;;;21.00;99.90;;;;;;5012293;28;20061;-81
2023/10/11 13:09:15;;;;;;;4.38;2.95;;;21.00;99.90;;;;;;5011635;28;20092;-78
2023/10/11 13:11:45;;;;;;;6.53;4.00;;;20.90;99.90;;;;;;5012757;28;20057;-81
2023/10/11 13:14:21;;;;;;;5.57;3.83;;;20.80;99.90;;;;;;5012607;28;20105;-82
2023/10/11 13:16:48;;;;;;;5.95;3.83;;;20.80;99.90;;;;;;5012160;28;20534;-82
2023/10/11 13:19:20;;;;;;;7.40;3.38;;;20.90;99.90;;;;;;5012396;28;20541;-84
2023/10/11 13:21:49;;;;;;;3.40;3.00;;;20.80;99.90;;;;;;5012581;28;20054;-82
2023/10/11 13:24:24;;;;;;;4.50;3.55;;;20.80;99.90;;;;;;5011586;28;20474;-82
2023/10/11 13:26:51;;;;;;;6.22;3.25;;;20.90;99.90;;;;;;5012521;28;20050;-83
2023/10/11 13:29:18;;;;;;;7.32;3.50;;;21.10;99.90;;;;;;5013470;28;20077;-82
2023/10/11 13:31:55;;;;;;;7.80;3.72;;;21.10;99.90;;;;;;5015120;28;20042;-83
2023/10/11 13:34:29;;;;;;;7.28;4.03;;;21.10;99.90;;;;;;5016220;28;20048;-82
2023/10/11 13:37:00;;;;;;;7.78;4.35;;;21.10;99.90;;;;;;5016186;28;20041;-81
2023/10/11 13:39:27;;;;;;;8.35;4.07;;;21.00;99.90;;;;;;5016179;28;20053;-81
2023/10/11 13:41:52;;;;;;;5.38;3.88;;;20.90;99.90;;;;;;5016019;28;20054;-83
2023/10/11 13:44:21;;;;;;;5.93;3.90;;;20.80;99.90;;;;;;5015988;28;20053;-84
2023/10/11 13:46:55;;;;;;;5.88;3.78;;;20.80;99.90;;;;;;5016229;28;20046;-82
2023/10/11 13:49:25;;;;;;;10.93;3.75;;;20.70;99.90;;;;;;5016350;28;20053;-81
2023/10/11 13:51:58;;;;;;;7.47;3.63;;;20.70;99.90;;;;;;5016511;28;20054;-80
2023/10/11 13:54:34;;;;;;;5.75;3.58;;;20.70;99.90;;;;;;5015886;28;20050;-83